createdAt,value
2019-05-10T00:01:10.460Z,1.80
2019-05-10T00:04:15.196Z,1.97
2019-05-10T00:07:19.379Z,2.30
2019-05-10T00:10:04.869Z,3.17
2019-05-10T00:13:08.221Z,2.30
2019-05-10T00:15:54.236Z,2.40
2019-05-10T00:18:40.164Z,2.07
2019-05-10T00:21:26.083Z,2.27
2019-05-10T00:24:12.388Z,2.40
2019-05-10T00:26:58.827Z,2.30
2019-05-10T00:29:45.123Z,2.30
2019-05-10T00:32:31.407Z,2.80
2019-05-10T00:35:17.492Z,2.20
2019-05-10T00:38:03.228Z,2.57
2019-05-10T00:40:49.540Z,2.23
2019-05-10T00:43:35.977Z,2.43
2019-05-10T00:46:22.247Z,2.80
2019-05-10T00:49:08.115Z,2.30
2019-05-10T00:51:54.556Z,2.33
2019-05-10T00:54:40.895Z,2.40
2019-05-10T00:57:26.783Z,2.30
2019-05-10T01:00:13.024Z,2.37
2019-05-10T01:02:59.369Z,2.23
2019-05-10T01:05:45.843Z,2.37
2019-05-10T01:08:32.137Z,2.60
2019-05-10T01:11:18.372Z,2.33
2019-05-10T01:14:04.827Z,2.50
2019-05-10T01:16:51.007Z,2.60
2019-05-10T01:19:36.771Z,2.63
2019-05-10T01:22:22.745Z,2.93
2019-05-10T01:25:09.995Z,2.83
2019-05-10T01:27:56.052Z,2.70
2019-05-10T01:30:42.393Z,3.20
2019-05-10T01:33:28.741Z,2.80
2019-05-10T01:36:15.157Z,3.10
2019-05-10T01:39:01.388Z,3.20
2019-05-10T01:41:47.740Z,2.93
2019-05-10T01:44:33.711Z,2.47
2019-05-10T01:47:20.020Z,2.60
2019-05-10T01:50:05.993Z,2.73
2019-05-10T01:52:52.367Z,3.17
2019-05-10T01:55:51.677Z,2.87
2019-05-10T01:58:27.139Z,3.00
2019-05-10T02:01:13.481Z,2.70
2019-05-10T02:03:59.699Z,3.20
2019-05-10T02:06:45.794Z,2.87
2019-05-10T02:09:33.496Z,2.70
2019-05-10T02:12:19.696Z,3.10
2019-05-10T02:15:05.696Z,2.97
2019-05-10T02:17:52.091Z,2.80
2019-05-10T02:20:38.463Z,2.50
2019-05-10T02:23:24.775Z,3.17
2019-05-10T02:26:11.129Z,2.87
2019-05-10T02:28:57.375Z,2.73
2019-05-10T02:31:43.833Z,3.20
2019-05-10T02:34:30.070Z,2.73
2019-05-10T02:37:16.020Z,2.93
2019-05-10T02:40:01.878Z,3.10
2019-05-10T02:42:48.173Z,2.90
2019-05-10T02:45:34.367Z,2.60
2019-05-10T02:48:20.879Z,2.90
2019-05-10T02:51:07.142Z,3.00
2019-05-10T02:53:53.618Z,2.90
2019-05-10T02:56:40.163Z,3.13
2019-05-10T02:59:26.529Z,2.77
2019-05-10T03:02:13.396Z,2.90
2019-05-10T03:04:59.453Z,3.13
2019-05-10T03:07:46.944Z,3.00
2019-05-10T03:10:33.307Z,3.17
2019-05-10T03:13:27.035Z,2.67
2019-05-10T03:16:12.884Z,3.10
2019-05-10T03:18:59.791Z,2.87
2019-05-10T03:21:47.553Z,2.97
2019-05-10T03:24:33.832Z,2.50
2019-05-10T03:27:20.079Z,2.97
2019-05-10T03:30:06.561Z,2.77
2019-05-10T03:32:52.868Z,2.87
2019-05-10T03:35:39.165Z,2.80
2019-05-10T03:38:25.587Z,2.97
2019-05-10T03:41:14.997Z,3.03
2019-05-10T03:44:00.896Z,2.97
2019-05-10T03:46:47.136Z,2.80
2019-05-10T03:49:33.592Z,3.03
2019-05-10T03:52:19.829Z,3.20
2019-05-10T03:55:06.398Z,2.63
2019-05-10T03:57:52.544Z,3.30
2019-05-10T04:00:38.341Z,2.60
2019-05-10T04:03:24.720Z,2.70
2019-05-10T04:06:11.062Z,2.53
2019-05-10T04:08:57.301Z,2.43
2019-05-10T04:11:43.577Z,2.63
2019-05-10T04:14:29.868Z,3.07
2019-05-10T04:17:16.344Z,2.80
2019-05-10T04:20:03.264Z,2.60
2019-05-10T04:22:49.529Z,2.83
2019-05-10T04:25:35.905Z,2.63
2019-05-10T04:28:22.353Z,2.53
2019-05-10T04:31:08.690Z,2.87
2019-05-10T04:33:54.996Z,2.60
2019-05-10T04:36:41.450Z,2.53
2019-05-10T04:39:27.745Z,2.87
2019-05-10T04:42:14.047Z,2.57
2019-05-10T04:45:00.269Z,3.10
2019-05-10T04:47:46.575Z,2.80
2019-05-10T04:50:33.009Z,2.60
2019-05-10T04:53:19.413Z,2.80
2019-05-10T04:56:05.735Z,2.67
2019-05-10T04:58:52.162Z,3.00
2019-05-10T05:01:38.567Z,2.70
2019-05-10T05:04:24.855Z,2.77
2019-05-10T05:07:10.732Z,2.67
2019-05-10T05:09:56.511Z,2.80
2019-05-10T05:12:42.768Z,2.70
2019-05-10T05:15:29.256Z,2.53
2019-05-10T05:18:15.056Z,2.60
2019-05-10T05:21:01.322Z,2.70
2019-05-10T05:23:47.301Z,2.97
2019-05-10T05:26:33.616Z,2.73
2019-05-10T05:29:19.557Z,2.90
2019-05-10T05:32:05.885Z,3.00
2019-05-10T05:34:52.245Z,2.80
2019-05-10T05:37:38.120Z,2.97
2019-05-10T05:40:24.412Z,2.30
2019-05-10T05:43:10.640Z,2.40
2019-05-10T05:46:17.358Z,2.60
2019-05-10T05:49:03.272Z,2.57
2019-05-10T05:51:49.560Z,2.93
2019-05-10T05:54:35.853Z,2.37
2019-05-10T05:57:22.273Z,2.23
2019-05-10T06:00:09.752Z,2.30
2019-05-10T06:02:55.980Z,2.40
2019-05-10T06:05:42.306Z,2.90
2019-05-10T06:08:29.987Z,2.80
2019-05-10T06:11:16.099Z,2.43
2019-05-10T06:14:10.334Z,2.63
2019-05-10T06:16:52.934Z,2.53
2019-05-10T06:19:38.559Z,2.53
2019-05-10T06:22:25.108Z,2.40
2019-05-10T06:25:10.790Z,2.80
2019-05-10T06:27:57.199Z,2.83
2019-05-10T06:30:43.694Z,2.53
2019-05-10T06:33:29.911Z,2.30
2019-05-10T06:36:15.757Z,2.50
2019-05-10T06:39:02.208Z,2.40
2019-05-10T06:41:50.145Z,2.23
2019-05-10T06:44:36.335Z,2.60
2019-05-10T06:47:22.172Z,2.73
2019-05-10T06:50:08.511Z,2.40
2019-05-10T06:52:54.652Z,2.43
2019-05-10T06:55:40.856Z,2.60
2019-05-10T06:58:30.479Z,2.30
2019-05-10T07:01:15.058Z,2.50
2019-05-10T07:04:01.439Z,2.60
2019-05-10T07:06:47.660Z,2.40
2019-05-10T07:10:00.379Z,2.40
2019-05-10T07:12:21.572Z,2.10
2019-05-10T07:15:07.698Z,2.50
2019-05-10T07:17:53.755Z,2.40
2019-05-10T07:20:42.950Z,2.33
2019-05-10T07:23:30.077Z,2.47
2019-05-10T07:26:17.497Z,2.50
2019-05-10T07:29:04.307Z,2.40
2019-05-10T07:31:50.588Z,2.17
2019-05-10T07:34:36.908Z,1.90
2019-05-10T07:37:23.459Z,2.70
2019-05-10T07:40:09.595Z,3.00
2019-05-10T07:42:56.017Z,2.50
2019-05-10T07:45:42.372Z,2.10
2019-05-10T07:48:30.417Z,2.47
2019-05-10T07:51:16.516Z,3.10
2019-05-10T07:54:06.258Z,2.80
2019-05-10T07:56:50.856Z,2.37
2019-05-10T07:59:49.577Z,2.40
2019-05-10T08:02:25.250Z,2.20
2019-05-10T08:05:14.021Z,2.40
2019-05-10T08:07:59.685Z,2.20
2019-05-10T08:10:46.025Z,2.50
2019-05-10T08:13:32.229Z,2.20
2019-05-10T08:16:22.773Z,2.10
2019-05-10T08:19:07.801Z,2.40
2019-05-10T08:22:00.513Z,2.47
2019-05-10T08:24:44.563Z,2.03
2019-05-10T08:27:32.326Z,2.37
2019-05-10T08:30:29.214Z,2.27
2019-05-10T08:33:15.520Z,2.17
2019-05-10T08:36:05.352Z,2.30
2019-05-10T08:39:00.561Z,2.17
2019-05-10T08:41:37.428Z,2.30
2019-05-10T08:44:24.074Z,2.13
2019-05-10T08:47:16.123Z,2.17
2019-05-10T08:50:12.077Z,2.30
2019-05-10T08:52:46.389Z,2.40
2019-05-10T08:55:32.715Z,2.13
2019-05-10T08:58:24.381Z,2.47
2019-05-10T09:01:20.131Z,2.97
2019-05-10T09:03:59.937Z,2.43
2019-05-10T09:06:42.196Z,2.40
2019-05-10T09:09:28.399Z,2.10
2019-05-10T09:12:14.816Z,2.33
2019-05-10T09:15:06.589Z,2.10
2019-05-10T09:17:48.837Z,2.40
2019-05-10T09:20:34.575Z,2.37
2019-05-10T09:23:22.716Z,2.40
2019-05-10T09:26:12.048Z,2.30
2019-05-10T09:28:57.858Z,2.30
2019-05-10T09:31:45.927Z,2.27
2019-05-10T09:34:35.054Z,2.20
2019-05-10T09:37:22.825Z,2.63
2019-05-10T09:40:09.905Z,2.73
2019-05-10T09:42:59.428Z,2.37
2019-05-10T09:45:44.947Z,2.40
2019-05-10T09:48:33.116Z,2.30
2019-05-10T09:51:19.134Z,2.23
2019-05-10T09:54:07.694Z,2.43
2019-05-10T09:56:53.712Z,2.20
2019-05-10T09:59:40.154Z,2.53
2019-05-10T10:02:33.474Z,2.10
2019-05-10T10:05:14.432Z,2.30
2019-05-10T10:08:03.709Z,2.83
2019-05-10T10:10:48.331Z,2.20
2019-05-10T10:13:42.651Z,2.40
2019-05-10T10:16:21.978Z,2.33
2019-05-10T10:19:07.795Z,2.50
2019-05-10T10:21:53.608Z,2.40
2019-05-10T10:24:41.087Z,2.10
2019-05-10T10:27:34.237Z,2.57
2019-05-10T10:30:20.694Z,2.63
2019-05-10T10:33:05.746Z,2.30
2019-05-10T10:35:56.569Z,2.40
2019-05-10T10:38:45.337Z,2.20
2019-05-10T10:41:31.806Z,2.40
2019-05-10T10:44:15.283Z,2.50
2019-05-10T10:47:01.243Z,2.70
2019-05-10T10:49:47.567Z,2.30
2019-05-10T10:52:33.604Z,2.40
2019-05-10T10:55:19.916Z,2.47
2019-05-10T10:58:07.381Z,2.30
2019-05-10T11:00:53.903Z,2.70
2019-05-10T11:03:39.831Z,2.57
2019-05-10T11:06:25.672Z,2.67
2019-05-10T11:09:11.528Z,2.43
2019-05-10T11:11:57.945Z,2.53
2019-05-10T11:14:45.564Z,2.07
2019-05-10T11:17:31.624Z,2.53
2019-05-10T11:20:18.192Z,2.57
2019-05-10T11:23:04.310Z,2.50
2019-05-10T11:25:56.258Z,2.43
2019-05-10T11:28:43.531Z,2.83
2019-05-10T11:31:26.628Z,3.07
2019-05-10T11:34:12.479Z,2.50
2019-05-10T11:36:58.948Z,2.90
2019-05-10T11:39:46.919Z,3.00
2019-05-10T11:42:37.292Z,2.83
2019-05-10T11:45:21.001Z,2.70
2019-05-10T11:48:07.411Z,2.33
2019-05-10T11:50:53.748Z,2.23
2019-05-10T11:53:41.490Z,2.30
2019-05-10T11:56:27.870Z,2.87
2019-05-10T11:59:16.430Z,2.73
2019-05-10T12:02:02.893Z,2.70
2019-05-10T12:04:52.677Z,2.90
2019-05-10T12:07:45.393Z,3.07
2019-05-10T12:10:26.006Z,2.77
2019-05-10T12:13:19.409Z,2.90
2019-05-10T12:16:00.373Z,2.63
2019-05-10T12:19:05.381Z,3.07
2019-05-10T12:21:34.579Z,2.73
2019-05-10T12:24:39.207Z,3.00
2019-05-10T12:27:24.848Z,3.07
2019-05-10T12:30:02.653Z,3.00
2019-05-10T12:32:55.675Z,3.00
2019-05-10T12:35:39.814Z,3.03
2019-05-10T12:38:23.556Z,2.80
2019-05-10T12:41:08.026Z,2.93
2019-05-10T12:44:02.948Z,2.37
2019-05-10T12:46:42.416Z,2.90
2019-05-10T12:49:28.467Z,2.90
2019-05-10T12:52:16.203Z,2.83
2019-05-10T12:55:02.189Z,2.60
2019-05-10T12:57:48.474Z,2.70
2019-05-10T13:00:34.336Z,2.97
2019-05-10T13:03:25.494Z,3.00
2019-05-10T13:06:08.005Z,2.90
2019-05-10T13:08:53.952Z,2.70
2019-05-10T13:11:40.184Z,2.97
2019-05-10T13:14:29.042Z,2.60
2019-05-10T13:17:17.066Z,2.90
2019-05-10T13:20:02.106Z,2.80
2019-05-10T13:22:48.002Z,2.73
2019-05-10T13:25:34.502Z,2.60
2019-05-10T13:28:20.765Z,3.43
2019-05-10T13:31:07.244Z,2.80
2019-05-10T13:33:53.543Z,3.53
2019-05-10T13:36:39.387Z,3.13
2019-05-10T13:39:27.608Z,3.23
2019-05-10T13:42:13.739Z,3.07
2019-05-10T13:45:00.016Z,3.20
2019-05-10T13:47:46.447Z,2.90
2019-05-10T13:50:33.075Z,2.97
2019-05-10T13:53:20.790Z,3.27
2019-05-10T13:56:09.185Z,2.90
2019-05-10T13:58:55.286Z,2.73
2019-05-10T14:01:44.304Z,2.80
2019-05-10T14:04:34.076Z,2.80
2019-05-10T14:07:17.408Z,2.30
2019-05-10T14:10:04.219Z,2.50
2019-05-10T14:12:50.069Z,3.13
2019-05-10T14:15:36.390Z,3.00
2019-05-10T14:18:22.809Z,2.77
2019-05-10T14:21:08.963Z,2.83
2019-05-10T14:23:57.010Z,2.57
2019-05-10T14:26:43.362Z,2.60
2019-05-10T14:29:34.815Z,2.97
2019-05-10T14:32:17.192Z,2.77
2019-05-10T14:35:04.158Z,2.73
2019-05-10T14:37:50.486Z,2.77
2019-05-10T14:40:36.822Z,2.80
2019-05-10T14:43:23.244Z,2.50
2019-05-10T14:46:13.752Z,3.47
2019-05-10T14:48:56.940Z,2.77
2019-05-10T14:51:57.748Z,2.70
2019-05-10T14:54:42.734Z,2.70
2019-05-10T14:57:18.332Z,2.77
2019-05-10T15:00:04.974Z,2.90
2019-05-10T15:02:51.043Z,2.67
2019-05-10T15:05:37.506Z,2.90
2019-05-10T15:08:23.935Z,2.70
2019-05-10T15:11:10.307Z,3.00
2019-05-10T15:13:56.159Z,2.90
2019-05-10T15:16:42.478Z,3.00
2019-05-10T15:19:31.188Z,2.63
2019-05-10T15:22:18.463Z,2.77
2019-05-10T15:25:05.180Z,2.60
2019-05-10T15:27:54.706Z,2.63
2019-05-10T15:30:45.186Z,2.80
2019-05-10T15:33:27.188Z,2.60
2019-05-10T15:36:13.437Z,2.70
2019-05-10T15:38:59.276Z,2.70
2019-05-10T15:41:45.713Z,3.50
2019-05-10T15:44:33.741Z,2.87
2019-05-10T15:47:20.833Z,2.93
2019-05-10T15:50:07.828Z,2.67
2019-05-10T15:52:54.065Z,2.60
2019-05-10T15:55:40.383Z,3.10
2019-05-10T15:58:30.539Z,3.07
2019-05-10T16:01:14.633Z,2.87
2019-05-10T16:04:00.843Z,2.80
2019-05-10T16:06:46.784Z,2.80
2019-05-10T16:09:33.075Z,2.80
2019-05-10T16:12:18.830Z,2.97
2019-05-10T16:15:05.539Z,3.00
2019-05-10T16:17:53.739Z,2.77
2019-05-10T16:20:39.445Z,2.77
2019-05-10T16:23:25.456Z,3.03
2019-05-10T16:26:11.731Z,3.43
2019-05-10T16:29:02.369Z,2.63
2019-05-10T16:31:45.627Z,3.13
2019-05-10T16:34:32.775Z,3.03
2019-05-10T16:37:19.615Z,2.77
2019-05-10T16:40:06.193Z,3.13
2019-05-10T16:42:52.275Z,2.97
2019-05-10T16:45:38.139Z,3.10
2019-05-10T16:48:23.976Z,2.97
2019-05-10T16:51:12.359Z,2.90
2019-05-10T16:53:57.800Z,3.20
2019-05-10T16:56:43.639Z,3.37
2019-05-10T16:59:31.365Z,2.90
2019-05-10T17:02:17.705Z,3.30
2019-05-10T17:05:04.304Z,3.10
2019-05-10T17:07:53.786Z,3.33
2019-05-10T17:10:38.373Z,2.87
2019-05-10T17:13:24.255Z,3.17
2019-05-10T17:16:11.558Z,3.10
2019-05-10T17:18:58.193Z,3.00
2019-05-10T17:21:44.759Z,3.30
2019-05-10T17:24:30.515Z,2.80
2019-05-10T17:27:16.238Z,2.90
2019-05-10T17:30:02.724Z,3.20
2019-05-10T17:32:48.925Z,3.50
2019-05-10T17:35:36.716Z,3.13
2019-05-10T17:38:22.879Z,3.13
2019-05-10T17:41:08.696Z,3.50
2019-05-10T17:43:54.504Z,2.93
2019-05-10T17:46:40.417Z,3.23
2019-05-10T17:49:26.864Z,3.17
2019-05-10T17:52:13.743Z,3.90
2019-05-10T17:54:59.583Z,3.37
2019-05-10T17:57:48.776Z,3.40
2019-05-10T18:00:33.805Z,3.50
2019-05-10T18:03:20.138Z,3.20
2019-05-10T18:06:05.921Z,3.10
2019-05-10T18:08:52.511Z,3.10
2019-05-10T18:11:42.729Z,2.97
2019-05-10T18:14:29.409Z,4.00
2019-05-10T18:17:14.571Z,3.30
2019-05-10T18:20:02.382Z,3.60
2019-05-10T18:22:48.595Z,3.50
2019-05-10T18:25:34.467Z,3.73
2019-05-10T18:28:21.553Z,3.43
2019-05-10T18:31:08.203Z,3.67
2019-05-10T18:33:55.944Z,3.70
2019-05-10T18:36:51.466Z,3.60
2019-05-10T18:39:30.176Z,4.13
2019-05-10T18:42:18.775Z,3.20
2019-05-10T18:45:04.708Z,3.20
2019-05-10T18:47:50.833Z,3.90
2019-05-10T18:50:39.582Z,3.50
2019-05-10T18:53:25.609Z,3.67
2019-05-10T18:56:12.220Z,3.23
2019-05-10T18:59:06.760Z,3.63
2019-05-10T19:01:46.179Z,3.80
2019-05-10T19:04:31.965Z,4.00
2019-05-10T19:07:17.752Z,3.70
2019-05-10T19:10:04.340Z,3.80
2019-05-10T19:12:59.960Z,3.47
2019-05-10T19:15:38.491Z,4.13
2019-05-10T19:18:25.480Z,3.90
2019-05-10T19:21:12.091Z,4.23
2019-05-10T19:23:57.776Z,4.33
2019-05-10T19:26:43.719Z,4.00
2019-05-10T19:29:29.995Z,4.17
2019-05-10T19:32:18.113Z,4.33
2019-05-10T19:35:04.750Z,4.57
2019-05-10T19:37:51.086Z,4.57
2019-05-10T19:40:37.453Z,4.30
2019-05-10T19:43:23.988Z,4.50
2019-05-10T19:46:10.228Z,4.20
2019-05-10T19:48:56.585Z,4.37
2019-05-10T19:51:48.559Z,4.47
2019-05-10T19:54:30.917Z,4.20
2019-05-10T19:57:18.889Z,4.87
2019-05-10T20:00:05.326Z,4.63
2019-05-10T20:02:51.355Z,5.13
2019-05-10T20:05:37.620Z,4.73
2019-05-10T20:08:24.099Z,4.97
2019-05-10T20:11:10.380Z,5.50
2019-05-10T20:13:56.195Z,5.17
2019-05-10T20:16:52.372Z,6.83
2019-05-10T20:19:30.454Z,6.17
2019-05-10T20:22:16.557Z,5.33
2019-05-10T20:25:02.932Z,6.07
2019-05-10T20:27:49.009Z,5.90
2019-05-10T20:30:35.322Z,5.97
2019-05-10T20:33:21.524Z,6.20
2019-05-10T20:36:07.276Z,6.30
2019-05-10T20:38:53.248Z,6.30
2019-05-10T20:41:39.051Z,6.43
2019-05-10T20:44:25.376Z,6.70
2019-05-10T20:47:11.831Z,6.67
2019-05-10T20:49:58.083Z,6.90
2019-05-10T20:52:44.347Z,7.30
2019-05-10T20:55:30.794Z,7.10
2019-05-10T20:58:17.191Z,6.47
2019-05-10T21:01:03.539Z,6.90
2019-05-10T21:03:49.849Z,6.60
2019-05-10T21:06:36.052Z,7.33
2019-05-10T21:09:22.040Z,6.90
2019-05-10T21:12:07.939Z,7.37
2019-05-10T21:14:54.032Z,7.27
2019-05-10T21:17:40.487Z,7.20
2019-05-10T21:20:26.638Z,7.27
2019-05-10T21:23:12.451Z,7.80
2019-05-10T21:25:58.291Z,8.67
2019-05-10T21:28:44.511Z,7.70
2019-05-10T21:31:30.516Z,7.70
2019-05-10T21:34:19.796Z,8.93
2019-05-10T21:37:05.956Z,9.27
2019-05-10T21:39:52.299Z,9.00
2019-05-10T21:42:38.142Z,8.30
2019-05-10T21:45:24.618Z,8.17
2019-05-10T21:48:11.024Z,8.90
2019-05-10T21:50:56.803Z,8.70
2019-05-10T21:53:43.174Z,8.23
2019-05-10T21:56:29.594Z,8.80
2019-05-10T21:59:15.995Z,8.30
2019-05-10T22:02:01.987Z,8.87
2019-05-10T22:04:48.519Z,9.37
2019-05-10T22:07:34.784Z,9.43
2019-05-10T22:10:21.235Z,9.57
2019-05-10T22:13:07.628Z,9.43
2019-05-10T22:15:53.757Z,8.77
2019-05-10T22:18:41.039Z,9.07
2019-05-10T22:21:27.049Z,9.93
2019-05-10T22:24:13.228Z,9.50
2019-05-10T22:26:59.075Z,10.40
2019-05-10T22:29:44.769Z,10.03
2019-05-10T22:32:31.043Z,9.70
2019-05-10T22:35:17.547Z,10.00
2019-05-10T22:38:03.756Z,10.30
2019-05-10T22:40:49.563Z,10.20
2019-05-10T22:43:35.955Z,10.27
2019-05-10T22:46:21.808Z,10.77
2019-05-10T22:49:07.752Z,11.10
2019-05-10T22:51:54.176Z,11.17
2019-05-10T22:54:40.471Z,11.40
2019-05-10T22:57:26.448Z,11.60
2019-05-10T23:00:13.635Z,11.17
2019-05-10T23:02:59.580Z,11.33
2019-05-10T23:05:46.087Z,11.07
2019-05-10T23:08:31.832Z,11.40
2019-05-10T23:11:17.723Z,12.13
2019-05-10T23:14:04.170Z,11.53
2019-05-10T23:16:50.515Z,12.13
2019-05-10T23:19:36.437Z,12.40
2019-05-10T23:22:22.863Z,11.57
2019-05-10T23:25:09.207Z,12.27
2019-05-10T23:27:55.453Z,12.33
2019-05-10T23:30:41.344Z,12.23
2019-05-10T23:33:27.336Z,11.70
2019-05-10T23:36:13.829Z,12.40
2019-05-10T23:39:00.175Z,11.67
2019-05-10T23:41:46.419Z,12.00
2019-05-10T23:44:32.901Z,11.87
2019-05-10T23:47:19.064Z,12.07
2019-05-10T23:50:05.127Z,11.40
2019-05-10T23:52:51.484Z,12.07
2019-05-10T23:55:37.699Z,11.67
2019-05-10T23:58:23.587Z,11.07
